createdAt,value
2017-06-19T00:01:44.137Z,16
2017-06-19T00:02:43.253Z,16
2017-06-19T00:03:42.993Z,16
2017-06-19T00:04:42.108Z,16
2017-06-19T00:05:41.339Z,16
2017-06-19T00:06:40.406Z,16
2017-06-19T00:07:40.143Z,16
2017-06-19T00:08:39.369Z,16
2017-06-19T00:09:38.492Z,16
2017-06-19T00:10:37.727Z,16
2017-06-19T00:11:36.837Z,16
2017-06-19T00:12:36.566Z,16
2017-06-19T00:13:35.797Z,16.1
2017-06-19T00:14:34.909Z,16.1
2017-06-19T00:15:34.142Z,16.1
2017-06-19T00:16:33.373Z,16.1
2017-06-19T00:17:33.114Z,16.1
2017-06-19T00:18:32.358Z,16.1
2017-06-19T00:19:31.590Z,16.1
2017-06-19T00:20:30.586Z,16.1
2017-06-19T00:21:30.193Z,16.1
2017-06-19T00:22:29.426Z,16.1
2017-06-19T00:23:28.652Z,16.1
2017-06-19T00:24:27.863Z,16.1
2017-06-19T00:25:26.976Z,16.1
2017-06-19T00:26:26.709Z,16.1
2017-06-19T00:27:26.523Z,16.1
2017-06-19T00:28:25.250Z,16.1
2017-06-19T00:28:55.798Z,16.1
2017-06-19T00:30:23.717Z,16.1
2017-06-19T00:31:22.829Z,16.1
2017-06-19T00:32:22.449Z,16.1
2017-06-19T00:33:21.682Z,16.1
2017-06-19T00:34:20.795Z,16.1
2017-06-19T00:35:20.416Z,16.1
2017-06-19T00:37:18.537Z,16.1
2017-06-19T00:38:18.155Z,16.1
2017-06-19T00:39:17.145Z,16.1
2017-06-19T00:40:16.640Z,16.1
2017-06-19T00:41:15.889Z,16
2017-06-19T00:42:15.114Z,16.1
2017-06-19T00:43:14.355Z,16
2017-06-19T00:44:13.740Z,16
2017-06-19T00:45:12.972Z,16
2017-06-19T00:46:12.599Z,16
2017-06-19T00:47:11.831Z,16
2017-06-19T00:48:10.829Z,16.1
2017-06-19T00:49:09.937Z,16.1
2017-06-19T00:50:09.680Z,16
2017-06-19T00:51:08.677Z,16
2017-06-19T00:52:07.903Z,16
2017-06-19T00:53:07.636Z,16
2017-06-19T00:54:06.761Z,16
2017-06-19T00:55:05.991Z,16
2017-06-19T00:56:04.993Z,16
2017-06-19T00:57:04.620Z,16.1
2017-06-19T00:58:03.847Z,16.1
2017-06-19T00:59:02.959Z,16.1
2017-06-19T01:00:02.581Z,16.1
2017-06-19T01:01:01.585Z,16.1
2017-06-19T01:02:00.822Z,16.1
2017-06-19T01:03:00.432Z,16.2
2017-06-19T01:03:59.663Z,16.1
2017-06-19T01:04:58.892Z,16.2
2017-06-19T01:05:58.130Z,16.1
2017-06-19T01:06:57.358Z,16.1
2017-06-19T01:07:57.022Z,16.1
2017-06-19T01:08:56.254Z,16.1
2017-06-19T01:09:55.483Z,16.1
2017-06-19T01:10:54.711Z,16.1
2017-06-19T01:11:53.937Z,16.1
2017-06-19T01:12:53.162Z,16.1
2017-06-19T01:13:52.774Z,16.1
2017-06-19T01:14:52.013Z,16.1
2017-06-19T01:15:51.247Z,16.1
2017-06-19T01:16:50.477Z,16.1
2017-06-19T01:17:49.707Z,16.1
2017-06-19T01:18:48.935Z,16.1
2017-06-19T01:19:48.164Z,16.1
2017-06-19T01:20:47.483Z,16.1
2017-06-19T01:21:46.729Z,16.1
2017-06-19T01:22:46.346Z,16.2
2017-06-19T01:24:44.960Z,16.3
2017-06-19T01:25:44.075Z,16.3
2017-06-19T01:26:43.186Z,16.3
2017-06-19T01:27:42.415Z,16.2
2017-06-19T01:28:42.040Z,16.2
2017-06-19T01:29:41.444Z,16.2
2017-06-19T01:30:40.684Z,16.2
2017-06-19T01:31:39.915Z,16.2
2017-06-19T01:32:39.152Z,16.2
2017-06-19T01:33:38.382Z,16.2
2017-06-19T01:34:37.494Z,16.2
2017-06-19T01:35:37.118Z,16.1
2017-06-19T01:36:36.351Z,16.1
2017-06-19T01:37:35.465Z,16.1
2017-06-19T01:38:34.690Z,16.1
2017-06-19T01:39:33.915Z,16.1
2017-06-19T01:40:33.529Z,16.1
2017-06-19T01:41:33.336Z,16.1
2017-06-19T01:42:32.064Z,16.1
2017-06-19T01:43:31.298Z,16
2017-06-19T01:44:30.605Z,16
2017-06-19T01:45:29.837Z,16
2017-06-19T01:46:29.106Z,16
2017-06-19T01:47:28.333Z,16
2017-06-19T01:48:27.564Z,15.9
2017-06-19T01:49:27.185Z,15.9
2017-06-19T01:50:26.414Z,15.9
2017-06-19T01:51:25.737Z,15.9
2017-06-19T01:52:24.725Z,15.9
2017-06-19T01:53:24.375Z,15.9
2017-06-19T01:54:23.603Z,15.9
2017-06-19T01:55:22.722Z,15.9
2017-06-19T01:55:53.265Z,15.9
2017-06-19T01:58:20.575Z,15.8
2017-06-19T01:59:19.804Z,15.8
2017-06-19T02:00:19.533Z,15.8
2017-06-19T02:01:18.765Z,15.8
2017-06-19T02:02:17.998Z,15.7
2017-06-19T02:03:17.237Z,15.8
2017-06-19T02:04:16.227Z,15.7
2017-06-19T02:05:15.844Z,15.7
2017-06-19T02:06:15.078Z,15.7
2017-06-19T02:07:14.301Z,15.7
2017-06-19T02:08:13.529Z,15.6
2017-06-19T02:09:13.152Z,15.6
2017-06-19T02:10:12.266Z,15.6
2017-06-19T02:11:11.416Z,15.6
2017-06-19T02:12:10.645Z,15.6
2017-06-19T02:13:10.261Z,15.6
2017-06-19T02:14:09.250Z,15.6
2017-06-19T02:15:08.486Z,15.5
2017-06-19T02:16:07.717Z,15.5
2017-06-19T02:17:07.452Z,15.5
2017-06-19T02:18:06.571Z,15.5
2017-06-19T02:19:05.799Z,15.5
2017-06-19T02:20:04.909Z,15.5
2017-06-19T02:21:04.531Z,15.5
2017-06-19T02:23:03.043Z,15.4
2017-06-19T02:24:02.276Z,15.4
2017-06-19T02:25:01.506Z,15.4
2017-06-19T02:26:00.742Z,15.3
2017-06-19T02:26:59.742Z,15.3
2017-06-19T02:27:59.479Z,15.3
2017-06-19T02:28:58.709Z,15.3
2017-06-19T02:29:57.819Z,15.3
2017-06-19T02:30:57.436Z,15.3
2017-06-19T02:31:56.666Z,15.2
2017-06-19T02:32:55.898Z,15.2
2017-06-19T02:33:55.135Z,15.2
2017-06-19T02:34:54.325Z,15.2
2017-06-19T02:35:53.561Z,15.2
2017-06-19T02:36:52.791Z,15.2
2017-06-19T02:37:52.026Z,15.2
2017-06-19T02:38:51.258Z,15.1
2017-06-19T02:39:50.875Z,15.1
2017-06-19T02:40:50.105Z,15.1
2017-06-19T02:41:49.222Z,15.1
2017-06-19T02:43:47.850Z,15.1
2017-06-19T02:44:47.083Z,15.1
2017-06-19T02:45:46.320Z,15
2017-06-19T02:46:45.551Z,15
2017-06-19T02:47:44.663Z,15
2017-06-19T02:48:44.271Z,15
2017-06-19T02:49:44.077Z,15
2017-06-19T02:50:42.892Z,15
2017-06-19T02:51:42.008Z,15
2017-06-19T02:52:41.240Z,15
2017-06-19T02:53:40.302Z,15
2017-06-19T02:54:40.043Z,14.9
2017-06-19T02:55:39.276Z,14.9
2017-06-19T02:56:38.509Z,15
2017-06-19T02:57:37.740Z,15
2017-06-19T02:58:36.974Z,14.9
2017-06-19T02:59:36.199Z,14.9
2017-06-19T03:00:35.436Z,14.9
2017-06-19T03:01:34.940Z,14.9
2017-06-19T03:02:34.488Z,14.9
2017-06-19T03:03:33.594Z,14.9
2017-06-19T03:04:32.826Z,14.9
2017-06-19T03:05:03.254Z,14.9
2017-06-19T03:05:33.793Z,14.9
2017-06-19T03:06:31.014Z,14.9
2017-06-19T03:08:29.646Z,14.8
2017-06-19T03:09:29.450Z,14.8
2017-06-19T03:10:28.060Z,14.8
2017-06-19T03:11:27.682Z,14.8
2017-06-19T03:12:26.931Z,14.8
2017-06-19T03:13:26.159Z,14.8
2017-06-19T03:14:25.276Z,14.8
2017-06-19T03:15:24.507Z,14.7
2017-06-19T03:16:24.011Z,14.8
2017-06-19T03:17:22.888Z,14.7
2017-06-19T03:18:22.624Z,14.7
2017-06-19T03:19:21.851Z,14.7
2017-06-19T03:20:20.962Z,14.8
2017-06-19T03:21:20.076Z,14.7
2017-06-19T03:22:19.812Z,14.7
2017-06-19T03:23:19.038Z,14.7
2017-06-19T03:24:18.272Z,14.7
2017-06-19T03:25:17.587Z,14.7
2017-06-19T03:26:16.693Z,14.7
2017-06-19T03:27:15.955Z,14.7
2017-06-19T03:28:15.186Z,14.7
2017-06-19T03:29:14.304Z,14.7
2017-06-19T03:30:13.539Z,14.7
2017-06-19T03:31:13.044Z,14.7
2017-06-19T03:32:12.307Z,14.7
2017-06-19T03:33:11.427Z,14.6
2017-06-19T03:34:10.662Z,14.6
2017-06-19T03:35:09.909Z,14.6
2017-06-19T03:36:09.526Z,14.6
2017-06-19T03:37:08.517Z,14.6
2017-06-19T03:38:08.015Z,14.6
2017-06-19T03:39:07.248Z,14.6
2017-06-19T03:40:06.484Z,14.6
2017-06-19T03:41:05.712Z,14.6
2017-06-19T03:42:04.824Z,14.6
2017-06-19T03:43:04.060Z,14.6
2017-06-19T03:45:02.560Z,14.6
2017-06-19T03:46:01.790Z,14.6
2017-06-19T03:47:01.532Z,14.6
2017-06-19T03:48:00.772Z,14.6
2017-06-19T03:49:00.003Z,14.6
2017-06-19T03:49:59.236Z,14.6
2017-06-19T03:50:58.347Z,14.6
2017-06-19T03:51:57.852Z,14.6
2017-06-19T03:52:56.961Z,14.6
2017-06-19T03:53:56.074Z,14.6
2017-06-19T03:54:55.306Z,14.6
2017-06-19T03:55:54.543Z,14.6
2017-06-19T03:56:54.164Z,14.6
2017-06-19T03:57:53.155Z,14.6
2017-06-19T03:58:52.150Z,14.6
2017-06-19T03:59:51.761Z,14.6
2017-06-19T04:00:50.995Z,14.6
2017-06-19T04:01:50.224Z,14.6
2017-06-19T04:02:49.460Z,14.6
2017-06-19T04:03:48.568Z,14.6
2017-06-19T04:04:48.280Z,14.6
2017-06-19T04:05:47.512Z,14.6
2017-06-19T04:06:46.740Z,14.6
2017-06-19T04:07:45.972Z,14.6
2017-06-19T04:08:45.208Z,14.6
2017-06-19T04:09:44.318Z,14.7
2017-06-19T04:10:43.547Z,14.6
2017-06-19T04:11:42.777Z,14.7
2017-06-19T04:12:42.007Z,14.7
2017-06-19T04:13:41.236Z,14.7
2017-06-19T04:14:40.462Z,14.7
2017-06-19T04:15:40.190Z,14.7
2017-06-19T04:16:39.420Z,14.7
2017-06-19T04:17:38.721Z,14.7
2017-06-19T04:18:37.718Z,14.7
2017-06-19T04:19:36.827Z,14.7
2017-06-19T04:20:36.023Z,14.8
2017-06-19T04:21:36.353Z,14.8
2017-06-19T04:22:34.582Z,14.8
2017-06-19T04:23:34.315Z,14.8
2017-06-19T04:24:33.542Z,14.8
2017-06-19T04:25:32.771Z,14.8
2017-06-19T04:26:31.882Z,14.8
2017-06-19T04:27:31.112Z,14.9
2017-06-19T04:28:30.362Z,14.9
2017-06-19T04:29:29.615Z,14.9
2017-06-19T04:30:28.739Z,14.9
2017-06-19T04:31:28.045Z,14.9
2017-06-19T04:32:27.276Z,14.9
2017-06-19T04:33:26.510Z,15
2017-06-19T04:34:26.016Z,15
2017-06-19T04:35:25.321Z,15
2017-06-19T04:37:23.702Z,15
2017-06-19T04:38:22.935Z,15
2017-06-19T04:39:22.474Z,15
2017-06-19T04:40:22.293Z,15.1
2017-06-19T04:41:20.905Z,15.1
2017-06-19T04:42:20.016Z,15.1
2017-06-19T04:44:18.527Z,15.1
2017-06-19T04:45:17.753Z,15.2
2017-06-19T04:46:16.984Z,15.2
2017-06-19T04:47:16.722Z,15.3
2017-06-19T04:48:16.538Z,15.3
2017-06-19T04:49:14.642Z,15.3
2017-06-19T04:50:14.375Z,15.3
2017-06-19T04:51:13.607Z,15.4
2017-06-19T04:53:12.108Z,15.4
2017-06-19T04:54:11.221Z,15.4
2017-06-19T04:55:10.567Z,15.4
2017-06-19T04:56:09.683Z,15.4
2017-06-19T04:57:09.413Z,15.4
2017-06-19T04:58:08.531Z,15.4
2017-06-19T04:59:07.811Z,15.5
2017-06-19T05:00:07.043Z,15.6
2017-06-19T05:01:06.157Z,15.6
2017-06-19T05:02:05.264Z,15.6
2017-06-19T05:03:04.885Z,15.6
2017-06-19T05:04:04.062Z,15.6
2017-06-19T05:05:03.062Z,15.6
2017-06-19T05:06:02.794Z,15.7
2017-06-19T05:07:02.105Z,15.7
2017-06-19T05:08:01.176Z,15.7
2017-06-19T05:09:00.292Z,15.7
2017-06-19T05:09:59.528Z,15.7
2017-06-19T05:10:58.758Z,15.7
2017-06-19T05:11:58.382Z,15.8
2017-06-19T05:12:57.617Z,15.8
2017-06-19T05:13:56.848Z,15.8
2017-06-19T05:14:56.157Z,15.8
2017-06-19T05:15:55.400Z,15.9
2017-06-19T05:16:54.389Z,15.9
2017-06-19T05:17:54.124Z,15.9
2017-06-19T05:18:53.240Z,15.9
2017-06-19T05:19:52.468Z,15.9
2017-06-19T05:20:51.698Z,15.9
2017-06-19T05:21:50.810Z,15.9
2017-06-19T05:22:50.042Z,15.9
2017-06-19T05:23:49.773Z,15.9
2017-06-19T05:24:48.892Z,15.9
2017-06-19T05:25:48.700Z,16
2017-06-19T05:26:48.096Z,16
2017-06-19T05:27:46.824Z,16
2017-06-19T05:28:45.940Z,16.1
2017-06-19T05:29:45.051Z,16.1
2017-06-19T05:30:44.161Z,16.2
2017-06-19T05:31:43.780Z,16.2
2017-06-19T05:32:42.890Z,16.2
2017-06-19T05:33:42.518Z,16.3
2017-06-19T05:34:41.627Z,16.4
2017-06-19T05:35:12.173Z,16.4
2017-06-19T05:36:39.849Z,16.4
2017-06-19T05:37:39.230Z,16.4
2017-06-19T05:38:38.727Z,16.4
2017-06-19T05:39:38.045Z,16.4
2017-06-19T05:40:37.279Z,16.5
2017-06-19T05:41:36.506Z,16.5
2017-06-19T05:42:35.742Z,16.5
2017-06-19T05:43:06.253Z,16.5
2017-06-19T05:43:36.561Z,16.6
2017-06-19T05:44:07.095Z,16.6
2017-06-19T05:45:33.769Z,16.6
2017-06-19T05:46:33.008Z,16.7
2017-06-19T05:47:32.248Z,16.7
2017-06-19T05:48:31.475Z,16.8
2017-06-19T05:49:30.593Z,16.8
2017-06-19T05:50:30.210Z,16.8
2017-06-19T05:51:29.279Z,16.8
2017-06-19T05:52:28.513Z,16.9
2017-06-19T05:53:28.725Z,16.9
2017-06-19T05:54:27.353Z,17.1
2017-06-19T05:55:26.348Z,17.1
2017-06-19T05:56:25.460Z,17.2
2017-06-19T05:57:25.096Z,17.3
2017-06-19T05:58:24.211Z,17.3
2017-06-19T05:59:23.321Z,17.4
2017-06-19T06:00:23.053Z,17.4
2017-06-19T06:01:22.288Z,17.5
2017-06-19T06:03:20.793Z,17.6
2017-06-19T06:04:20.019Z,17.6
2017-06-19T06:05:19.247Z,17.7
2017-06-19T06:06:18.480Z,17.7
2017-06-19T06:08:17.100Z,17.8
2017-06-19T06:09:16.854Z,17.8
2017-06-19T06:10:16.027Z,17.8
2017-06-19T06:11:15.260Z,17.8
2017-06-19T06:12:14.952Z,17.8
2017-06-19T06:13:13.762Z,17.8
2017-06-19T06:14:12.752Z,17.8
2017-06-19T06:15:12.374Z,17.9
2017-06-19T06:16:11.414Z,17.9
2017-06-19T06:17:10.802Z,18
2017-06-19T06:18:10.033Z,18.1
2017-06-19T06:19:09.766Z,18
2017-06-19T06:20:08.882Z,18.1
2017-06-19T06:21:08.118Z,18.1
2017-06-19T06:22:07.235Z,18.1
2017-06-19T06:23:06.976Z,18.1
2017-06-19T06:24:06.215Z,18.1
2017-06-19T06:25:05.447Z,18.3
2017-06-19T06:26:04.680Z,18.3
2017-06-19T06:27:03.675Z,18.3
2017-06-19T06:28:03.288Z,18.3
2017-06-19T06:29:02.519Z,18.5
2017-06-19T06:30:01.674Z,18.5
2017-06-19T06:31:01.288Z,18.6
2017-06-19T06:32:00.517Z,18.6
2017-06-19T06:32:59.748Z,18.6
2017-06-19T06:33:58.859Z,18.6
2017-06-19T06:34:58.666Z,18.7
2017-06-19T06:35:57.905Z,18.6
2017-06-19T06:36:57.134Z,18.7
2017-06-19T06:37:56.363Z,18.7
2017-06-19T06:38:55.356Z,18.7
2017-06-19T06:39:54.978Z,18.7
2017-06-19T06:40:54.089Z,18.9
2017-06-19T06:41:53.831Z,18.8
2017-06-19T06:42:53.057Z,18.9
2017-06-19T06:43:52.281Z,19
2017-06-19T06:44:51.512Z,19.1
2017-06-19T06:45:50.736Z,19.2
2017-06-19T06:46:50.235Z,19.1
2017-06-19T06:47:49.462Z,19.2
2017-06-19T06:48:48.693Z,19.3
2017-06-19T06:49:47.764Z,19.4
2017-06-19T06:50:47.503Z,19.3
2017-06-19T06:51:46.882Z,19.3
2017-06-19T06:52:45.997Z,19.4
2017-06-19T06:53:45.114Z,19.4
2017-06-19T06:54:44.854Z,19.4
2017-06-19T06:55:43.967Z,19.4
2017-06-19T06:56:43.583Z,19.4
2017-06-19T06:57:42.698Z,19.4
2017-06-19T06:58:41.818Z,19.4
2017-06-19T06:59:41.120Z,19.4
2017-06-19T07:00:40.853Z,19.4
2017-06-19T07:01:40.085Z,19.5
2017-06-19T07:02:39.327Z,19.6
2017-06-19T07:03:38.556Z,19.7
2017-06-19T07:04:37.671Z,19.8
2017-06-19T07:05:37.404Z,19.9
2017-06-19T07:06:36.641Z,19.9
2017-06-19T07:07:35.869Z,20
2017-06-19T07:08:35.098Z,19.9
2017-06-19T07:09:34.406Z,19.9
2017-06-19T07:10:34.144Z,19.9
2017-06-19T07:11:33.390Z,19.9
2017-06-19T07:12:33.199Z,20.1
2017-06-19T07:13:31.684Z,20.2
2017-06-19T07:14:31.182Z,20.2
2017-06-19T07:15:30.575Z,20.2
2017-06-19T07:16:29.811Z,20.3
2017-06-19T07:17:29.597Z,20.3
2017-06-19T07:18:28.836Z,20.3
2017-06-19T07:19:27.947Z,20.4
2017-06-19T07:20:27.577Z,20.4
2017-06-19T07:21:26.769Z,20.4
2017-06-19T07:22:26.007Z,20.5
2017-06-19T07:23:25.493Z,20.5
2017-06-19T07:24:24.722Z,20.5
2017-06-19T07:26:23.345Z,20.6
2017-06-19T07:27:22.979Z,20.6
2017-06-19T07:28:22.217Z,20.6
2017-06-19T07:29:21.702Z,20.7
2017-06-19T07:30:20.820Z,20.8
2017-06-19T07:31:20.105Z,20.8
2017-06-19T07:32:19.222Z,20.8
2017-06-19T07:33:18.959Z,20.8
2017-06-19T07:34:18.190Z,21
2017-06-19T07:35:17.721Z,21.1
2017-06-19T07:36:16.953Z,21
2017-06-19T07:37:16.060Z,21
2017-06-19T07:38:15.792Z,21
2017-06-19T07:39:14.863Z,21
2017-06-19T07:40:14.090Z,21
2017-06-19T07:41:14.130Z,21.1
2017-06-19T07:42:13.280Z,21.1
2017-06-19T07:43:12.454Z,21.2
2017-06-19T07:44:11.570Z,21.3
2017-06-19T07:45:11.305Z,21.3
2017-06-19T07:46:10.423Z,21.3
2017-06-19T07:47:09.842Z,21.2
2017-06-19T07:48:09.076Z,21.2
2017-06-19T07:49:08.458Z,21.2
2017-06-19T07:50:07.772Z,21.3
2017-06-19T07:51:07.005Z,21.3
2017-06-19T07:51:37.431Z,21.3
2017-06-19T07:52:07.853Z,21.2
2017-06-19T07:52:38.286Z,21.2
2017-06-19T07:54:05.023Z,21.2
2017-06-19T07:55:04.640Z,21.2
2017-06-19T07:56:04.014Z,21.3
2017-06-19T07:57:03.275Z,21.5
2017-06-19T07:58:03.148Z,21.6
2017-06-19T07:59:02.392Z,21.6
2017-06-19T08:00:01.508Z,21.6
2017-06-19T08:01:00.629Z,21.6
2017-06-19T08:02:00.151Z,21.6
2017-06-19T08:02:59.656Z,21.6
2017-06-19T08:03:59.184Z,21.7
2017-06-19T08:04:58.303Z,21.6
2017-06-19T08:05:57.538Z,21.7
2017-06-19T08:06:56.923Z,21.8
2017-06-19T08:07:56.553Z,21.9
2017-06-19T08:08:55.678Z,22
2017-06-19T08:09:55.716Z,22
2017-06-19T08:10:54.451Z,22
2017-06-19T08:11:54.184Z,22
2017-06-19T08:12:53.420Z,22.1
2017-06-19T08:13:52.657Z,22.1
2017-06-19T08:14:23.203Z,22.1
2017-06-19T08:14:54.325Z,22.1
2017-06-19T08:15:24.240Z,22.1
2017-06-19T08:15:54.751Z,22.1
2017-06-19T08:16:51.009Z,22.1
2017-06-19T08:17:50.244Z,22.1
2017-06-19T08:18:49.479Z,22.1
2017-06-19T08:19:49.211Z,22.1
2017-06-19T08:20:48.745Z,22.1
2017-06-19T08:21:47.980Z,22.2
2017-06-19T08:22:47.218Z,22.2
2017-06-19T08:24:46.220Z,22.2
2017-06-19T08:25:45.335Z,22.2
2017-06-19T08:26:45.090Z,22.3
2017-06-19T08:27:44.219Z,22.3
2017-06-19T08:28:43.218Z,22.3
2017-06-19T08:29:43.306Z,22.3
2017-06-19T08:30:42.308Z,22.3
2017-06-19T08:31:41.558Z,22.4
2017-06-19T08:32:41.547Z,22.4
2017-06-19T08:33:40.161Z,22.4
2017-06-19T08:34:39.793Z,22.4
2017-06-19T08:35:39.040Z,22.5
2017-06-19T08:36:38.784Z,22.6
2017-06-19T08:37:38.014Z,22.6
2017-06-19T08:38:37.545Z,22.6
2017-06-19T08:39:36.789Z,22.6
2017-06-19T08:41:35.296Z,22.6
2017-06-19T08:42:34.915Z,22.7
2017-06-19T08:43:34.535Z,22.7
2017-06-19T08:44:33.902Z,22.7
2017-06-19T08:45:33.029Z,22.7
2017-06-19T08:47:32.191Z,22.8
2017-06-19T08:48:31.300Z,22.9
2017-06-19T08:49:31.035Z,22.9
2017-06-19T08:50:30.286Z,22.9
2017-06-19T08:51:29.525Z,22.9
2017-06-19T08:52:29.145Z,22.9
2017-06-19T08:53:28.382Z,23
2017-06-19T08:54:28.126Z,23
2017-06-19T08:55:27.367Z,23
2017-06-19T08:56:26.789Z,23.2
2017-06-19T08:57:25.909Z,23.1
2017-06-19T08:58:25.648Z,23.1
2017-06-19T08:59:24.878Z,23.3
2017-06-19T09:00:24.116Z,23.3
2017-06-19T09:02:23.377Z,23.3
2017-06-19T09:02:53.798Z,23.3
2017-06-19T09:04:22.218Z,23.3
2017-06-19T09:05:21.456Z,23.3
2017-06-19T09:06:20.574Z,23.3
2017-06-19T09:07:20.201Z,23.3
2017-06-19T09:08:19.765Z,23.3
2017-06-19T09:09:18.896Z,23.3
2017-06-19T09:10:18.408Z,23.3
2017-06-19T09:11:17.652Z,23.3
2017-06-19T09:12:17.235Z,23.3
2017-06-19T09:13:16.974Z,23.4
2017-06-19T09:14:16.390Z,23.4
2017-06-19T09:15:15.389Z,23.4
2017-06-19T09:16:15.161Z,23.4
2017-06-19T09:17:14.346Z,23.5
2017-06-19T09:18:14.083Z,23.5
2017-06-19T09:19:13.321Z,23.7
2017-06-19T09:20:13.127Z,23.7
2017-06-19T09:21:11.741Z,23.9
2017-06-19T09:22:11.360Z,23.8
2017-06-19T09:23:11.119Z,23.7
2017-06-19T09:24:10.234Z,23.7
2017-06-19T09:25:09.858Z,23.6
2017-06-19T09:26:09.345Z,23.6
2017-06-19T09:27:08.606Z,23.6
2017-06-19T09:28:08.259Z,23.7
2017-06-19T09:29:07.375Z,23.6
2017-06-19T09:30:06.952Z,23.7
2017-06-19T09:31:06.183Z,23.6
2017-06-19T09:32:06.047Z,23.7
2017-06-19T09:33:05.170Z,23.6
2017-06-19T09:34:04.917Z,23.6
2017-06-19T09:36:03.539Z,23.5
2017-06-19T09:37:02.778Z,23.6
2017-06-19T09:38:02.826Z,23.5
2017-06-19T09:40:01.449Z,23.7
2017-06-19T09:41:00.562Z,23.8
2017-06-19T09:42:00.293Z,23.9
2017-06-19T09:42:59.406Z,24
2017-06-19T09:43:59.392Z,24
2017-06-19T09:44:58.505Z,24
2017-06-19T09:47:56.911Z,24
2017-06-19T09:48:56.024Z,24
2017-06-19T09:49:56.016Z,24
2017-06-19T09:50:55.258Z,24
2017-06-19T09:51:54.492Z,24.1
2017-06-19T09:52:54.120Z,24.1
2017-06-19T09:53:53.501Z,24.1
2017-06-19T09:54:53.119Z,24.1
2017-06-19T09:55:52.366Z,24.1
2017-06-19T09:57:51.382Z,24.2
2017-06-19T09:58:50.622Z,24.2
2017-06-19T09:59:49.863Z,24.2
2017-06-19T10:00:49.597Z,24.2
2017-06-19T10:01:49.132Z,24.2
2017-06-19T10:02:48.247Z,24.2
2017-06-19T10:03:47.749Z,24.2
2017-06-19T10:04:47.246Z,24.3
2017-06-19T10:05:46.861Z,24.4
2017-06-19T10:06:46.478Z,24.4
2017-06-19T10:07:45.963Z,24.4
2017-06-19T10:08:44.961Z,24.4
2017-06-19T10:09:44.345Z,24.6
2017-06-19T10:10:44.041Z,24.6
2017-06-19T10:11:43.658Z,24.7
2017-06-19T10:13:42.535Z,24.7
2017-06-19T10:14:41.646Z,24.8
2017-06-19T10:15:41.268Z,24.9
2017-06-19T10:16:40.888Z,24.9
2017-06-19T10:17:40.002Z,24.9
2017-06-19T10:18:39.611Z,25
2017-06-19T10:19:39.477Z,25.1
2017-06-19T10:20:38.710Z,25.2
2017-06-19T10:21:37.942Z,25.2
2017-06-19T10:22:37.680Z,25.2
2017-06-19T10:23:36.917Z,25.1
2017-06-19T10:24:36.653Z,25.1
2017-06-19T10:25:36.142Z,25.1
2017-06-19T10:26:35.382Z,25.1
2017-06-19T10:27:35.115Z,25
2017-06-19T10:28:34.354Z,25.1
2017-06-19T10:29:33.589Z,25
2017-06-19T10:30:33.319Z,25
2017-06-19T10:31:32.684Z,25
2017-06-19T10:32:32.418Z,25
2017-06-19T10:33:31.529Z,25
2017-06-19T10:34:31.143Z,25
2017-06-19T10:35:30.528Z,25
2017-06-19T10:36:30.149Z,25.1
2017-06-19T10:37:30.020Z,25.2
2017-06-19T10:38:29.250Z,25.2
2017-06-19T10:39:28.475Z,25.2
2017-06-19T10:40:28.084Z,25.2
2017-06-19T10:41:27.201Z,25.2
2017-06-19T10:42:26.943Z,25.2
2017-06-19T10:44:26.251Z,25.3
2017-06-19T10:45:25.489Z,25.4
2017-06-19T10:46:24.997Z,25.4
2017-06-19T10:47:24.609Z,25.5
2017-06-19T10:48:23.719Z,25.5
2017-06-19T10:49:23.535Z,25.6
2017-06-19T10:50:23.064Z,25.6
2017-06-19T10:51:22.176Z,25.6
2017-06-19T10:52:21.913Z,25.7
2017-06-19T10:53:21.150Z,25.7
2017-06-19T10:54:20.640Z,25.7
2017-06-19T10:55:20.142Z,25.7
2017-06-19T10:56:19.896Z,25.8
2017-06-19T10:57:19.403Z,25.7
2017-06-19T10:58:18.647Z,25.9
2017-06-19T10:59:18.381Z,25.9
2017-06-19T11:00:17.765Z,25.9
2017-06-19T11:01:17.268Z,26
2017-06-19T11:02:17.194Z,26
2017-06-19T11:03:16.463Z,26.1
2017-06-19T11:04:15.693Z,26
2017-06-19T11:05:15.429Z,26.1
2017-06-19T11:05:45.970Z,26.1
2017-06-19T11:06:16.520Z,26.1
2017-06-19T11:07:14.506Z,26.1
2017-06-19T11:08:14.044Z,26.2
2017-06-19T11:09:13.275Z,26.3
2017-06-19T11:10:13.009Z,26.4
2017-06-19T11:12:11.627Z,26.7
2017-06-19T11:13:11.133Z,26.9
2017-06-19T11:14:11.173Z,27
2017-06-19T11:15:10.284Z,27
2017-06-19T11:16:09.907Z,27.1
2017-06-19T11:17:09.410Z,27.1
2017-06-19T11:18:08.906Z,27.3
2017-06-19T11:19:08.525Z,27.3
2017-06-19T11:20:08.008Z,27.4
2017-06-19T11:21:07.508Z,27.5
2017-06-19T11:22:07.132Z,27.4
2017-06-19T11:23:06.748Z,27.6
2017-06-19T11:24:05.747Z,27.6
2017-06-19T11:25:05.502Z,27.6
2017-06-19T11:26:05.534Z,27.6
2017-06-19T11:27:04.529Z,27.5
2017-06-19T11:28:04.162Z,27.6
2017-06-19T11:29:03.923Z,27.7
2017-06-19T11:30:03.052Z,27.8
2017-06-19T11:31:02.676Z,27.9
2017-06-19T11:32:02.702Z,27.8
2017-06-19T11:33:01.953Z,27.8
2017-06-19T11:34:01.063Z,27.9
2017-06-19T11:35:00.801Z,27.8
2017-06-19T11:36:00.530Z,28
2017-06-19T11:36:59.759Z,27.8
2017-06-19T11:37:59.390Z,28
2017-06-19T11:38:59.009Z,28
2017-06-19T11:40:57.900Z,28
2017-06-19T11:41:57.599Z,28
2017-06-19T11:42:57.102Z,28
2017-06-19T11:43:56.985Z,28
2017-06-19T11:44:56.107Z,28
2017-06-19T11:45:55.851Z,28.1
2017-06-19T11:46:55.472Z,28.2
2017-06-19T11:47:54.848Z,28.3
2017-06-19T11:48:54.342Z,28.4
2017-06-19T11:49:54.150Z,28.3
2017-06-19T11:50:53.269Z,28.3
2017-06-19T11:51:52.895Z,28.5
2017-06-19T11:52:52.977Z,28.6
2017-06-19T11:53:51.972Z,28.7
2017-06-19T11:54:51.741Z,28.8
2017-06-19T11:55:51.357Z,28.9
2017-06-19T11:56:51.098Z,28.9
2017-06-19T11:57:50.215Z,28.9
2017-06-19T11:58:49.946Z,28.7
2017-06-19T11:59:49.444Z,28.7
2017-06-19T12:00:49.083Z,28.8
2017-06-19T12:01:48.700Z,28.9
2017-06-19T12:02:48.432Z,29
2017-06-19T12:03:48.169Z,29.1
2017-06-19T12:04:47.399Z,29.2
2017-06-19T12:05:47.135Z,29.2
2017-06-19T12:06:46.868Z,29.3
2017-06-19T12:07:46.097Z,29.2
2017-06-19T12:08:45.994Z,29.3
2017-06-19T12:09:45.227Z,29.3
2017-06-19T12:10:44.958Z,29.4
2017-06-19T12:11:44.833Z,29.3
2017-06-19T12:12:44.061Z,29.4
2017-06-19T12:13:43.675Z,29.5
2017-06-19T12:14:43.291Z,29.6
2017-06-19T12:15:42.787Z,29.7
2017-06-19T12:16:42.411Z,29.7
2017-06-19T12:17:42.327Z,29.5
2017-06-19T12:18:41.556Z,29.7
2017-06-19T12:19:41.052Z,29.8
2017-06-19T12:20:40.687Z,29.8
2017-06-19T12:21:40.309Z,30
2017-06-19T12:22:40.051Z,30.1
2017-06-19T12:23:39.170Z,30.1
2017-06-19T12:24:38.795Z,30.2
2017-06-19T12:25:38.553Z,30.1
2017-06-19T12:26:38.446Z,30.2
2017-06-19T12:27:37.679Z,30.4
2017-06-19T12:28:37.597Z,30.3
2017-06-19T12:29:37.332Z,30.5
2017-06-19T12:30:36.453Z,30.4
2017-06-19T12:31:36.082Z,30.5
2017-06-19T12:32:35.700Z,30.6
2017-06-19T12:33:35.344Z,30.6
2017-06-19T12:34:35.494Z,30.7
2017-06-19T12:35:34.388Z,30.9
2017-06-19T12:36:34.124Z,30.8
2017-06-19T12:37:34.436Z,30.7
2017-06-19T12:38:33.665Z,30.6
2017-06-19T12:39:32.778Z,30.6
2017-06-19T12:40:32.527Z,30.7
2017-06-19T12:41:32.143Z,30.8
2017-06-19T12:42:31.876Z,30.9
2017-06-19T12:43:31.619Z,31
2017-06-19T12:44:30.761Z,30.7
2017-06-19T12:45:30.526Z,30.9
2017-06-19T12:46:30.266Z,30.9
2017-06-19T12:47:30.268Z,31
2017-06-19T12:48:29.892Z,30.9
2017-06-19T12:49:29.398Z,31.1
2017-06-19T12:50:29.142Z,31.2
2017-06-19T12:51:28.623Z,30.9
2017-06-19T12:52:27.934Z,30.9
2017-06-19T12:53:27.557Z,30.7
2017-06-19T12:54:27.171Z,30.8
2017-06-19T12:55:26.903Z,30.7
2017-06-19T12:56:26.399Z,30.7
2017-06-19T12:57:26.439Z,30.9
2017-06-19T12:58:26.009Z,30.9
2017-06-19T12:59:25.743Z,31.1
2017-06-19T13:00:24.853Z,30.9
2017-06-19T13:01:24.587Z,30.9
2017-06-19T13:02:24.454Z,31.1
2017-06-19T13:03:24.194Z,31.2
2017-06-19T13:04:23.807Z,31.2
2017-06-19T13:05:23.428Z,31.2
2017-06-19T13:06:23.164Z,31.2
2017-06-19T13:07:22.394Z,31.5
2017-06-19T13:08:22.264Z,31.3
2017-06-19T13:08:52.815Z,31.3
2017-06-19T13:10:21.127Z,31.3
2017-06-19T13:11:21.173Z,31.5
2017-06-19T13:12:20.678Z,31.4
2017-06-19T13:13:20.980Z,31.5
2017-06-19T13:14:20.208Z,31.4
2017-06-19T13:15:19.831Z,31.7
2017-06-19T13:16:19.068Z,31.6
2017-06-19T13:17:19.188Z,31.6
2017-06-19T13:18:18.692Z,31.9
2017-06-19T13:19:18.006Z,32
2017-06-19T13:20:17.753Z,32.2
2017-06-19T13:21:17.140Z,32.5
2017-06-19T13:22:17.146Z,32.5
2017-06-19T13:23:16.880Z,32.7
2017-06-19T13:24:17.378Z,32.7
2017-06-19T13:25:15.992Z,32.7
2017-06-19T13:26:15.732Z,32.4
2017-06-19T13:27:15.471Z,32.5
2017-06-19T13:28:15.213Z,32.6
2017-06-19T13:29:14.719Z,32.7
2017-06-19T13:30:14.530Z,32.1
2017-06-19T13:32:13.417Z,32.5
2017-06-19T13:33:13.442Z,32
2017-06-19T13:34:12.678Z,31.8
2017-06-19T13:35:12.814Z,32.1
2017-06-19T13:36:12.199Z,32.1
2017-06-19T13:37:11.931Z,32.2
2017-06-19T13:38:11.554Z,32.2
2017-06-19T13:39:11.290Z,32.5